sensor_id;sensor_type;location;lat;lon;timestamp;P1;durP1;ratioP1;P2;durP2;ratioP2
56363;SDS011;42261;52.094;4.326;2023-02-11T00:01:30;10.13;;;2.53;;
56363;SDS011;42261;52.094;4.326;2023-02-11T00:04:15;9.80;;;2.60;;
56363;SDS011;42261;52.094;4.326;2023-02-11T00:07:00;11.57;;;2.97;;
56363;SDS011;42261;52.094;4.326;2023-02-11T00:09:45;8.23;;;2.55;;
56363;SDS011;42261;52.094;4.326;2023-02-11T00:12:29;12.13;;;3.60;;
56363;SDS011;42261;52.094;4.326;2023-02-11T00:15:13;13.23;;;2.67;;
56363;SDS011;42261;52.094;4.326;2023-02-11T00:17:56;12.40;;;3.22;;
56363;SDS011;42261;52.094;4.326;2023-02-11T00:20:41;12.65;;;2.42;;
56363;SDS011;42261;52.094;4.326;2023-02-11T00:23:25;8.73;;;2.65;;
56363;SDS011;42261;52.094;4.326;2023-02-11T00:28:57;11.90;;;2.88;;
56363;SDS011;42261;52.094;4.326;2023-02-11T00:31:41;11.52;;;2.58;;
56363;SDS011;42261;52.094;4.326;2023-02-11T00:34:25;11.38;;;2.38;;
56363;SDS011;42261;52.094;4.326;2023-02-11T00:37:09;12.18;;;2.53;;
56363;SDS011;42261;52.094;4.326;2023-02-11T00:39:55;10.40;;;2.97;;
56363;SDS011;42261;52.094;4.326;2023-02-11T00:42:38;8.02;;;2.53;;
56363;SDS011;42261;52.094;4.326;2023-02-11T00:45:23;13.88;;;2.80;;
56363;SDS011;42261;52.094;4.326;2023-02-11T00:48:08;12.90;;;2.75;;
56363;SDS011;42261;52.094;4.326;2023-02-11T00:50:52;18.67;;;3.05;;
56363;SDS011;42261;52.094;4.326;2023-02-11T00:53:36;15.27;;;3.13;;
56363;SDS011;42261;52.094;4.326;2023-02-11T00:56:20;15.63;;;3.28;;
56363;SDS011;42261;52.094;4.326;2023-02-11T00:59:04;10.82;;;2.92;;
56363;SDS011;42261;52.094;4.326;2023-02-11T01:01:48;13.35;;;2.97;;
56363;SDS011;42261;52.094;4.326;2023-02-11T01:04:32;11.60;;;2.70;;
56363;SDS011;42261;52.094;4.326;2023-02-11T01:07:17;17.30;;;2.70;;
56363;SDS011;42261;52.094;4.326;2023-02-11T01:10:00;13.27;;;3.25;;
56363;SDS011;42261;52.094;4.326;2023-02-11T01:12:44;12.02;;;3.35;;
56363;SDS011;42261;52.094;4.326;2023-02-11T01:15:28;12.55;;;3.65;;
56363;SDS011;42261;52.094;4.326;2023-02-11T01:18:12;20.92;;;3.47;;
56363;SDS011;42261;52.094;4.326;2023-02-11T01:20:56;10.27;;;3.38;;
56363;SDS011;42261;52.094;4.326;2023-02-11T01:23:41;15.20;;;3.33;;
56363;SDS011;42261;52.094;4.326;2023-02-11T01:26:25;15.23;;;2.88;;
56363;SDS011;42261;52.094;4.326;2023-02-11T01:29:10;13.43;;;3.03;;
56363;SDS011;42261;52.094;4.326;2023-02-11T01:31:53;15.18;;;4.78;;
56363;SDS011;42261;52.094;4.326;2023-02-11T01:34:39;11.90;;;3.42;;
56363;SDS011;42261;52.094;4.326;2023-02-11T01:37:23;13.70;;;3.55;;
56363;SDS011;42261;52.094;4.326;2023-02-11T01:40:10;14.50;;;3.80;;
56363;SDS011;42261;52.094;4.326;2023-02-11T01:42:54;19.08;;;4.00;;
56363;SDS011;42261;52.094;4.326;2023-02-11T01:48:33;13.93;;;5.13;;
56363;SDS011;42261;52.094;4.326;2023-02-11T01:51:26;13.30;;;3.72;;
56363;SDS011;42261;52.094;4.326;2023-02-11T01:54:14;13.77;;;4.05;;
56363;SDS011;42261;52.094;4.326;2023-02-11T01:57:18;16.05;;;4.85;;
56363;SDS011;42261;52.094;4.326;2023-02-11T02:03:32;17.90;;;3.55;;
56363;SDS011;42261;52.094;4.326;2023-02-11T02:06:18;13.57;;;4.28;;
56363;SDS011;42261;52.094;4.326;2023-02-11T02:09:08;13.48;;;3.90;;
56363;SDS011;42261;52.094;4.326;2023-02-11T02:11:52;16.33;;;4.10;;
56363;SDS011;42261;52.094;4.326;2023-02-11T02:14:37;20.77;;;4.95;;
56363;SDS011;42261;52.094;4.326;2023-02-11T02:17:27;17.92;;;5.32;;
56363;SDS011;42261;52.094;4.326;2023-02-11T02:20:37;17.77;;;6.13;;
56363;SDS011;42261;52.094;4.326;2023-02-11T02:35:10;15.13;;;5.50;;
56363;SDS011;42261;52.094;4.326;2023-02-11T02:38:05;17.58;;;5.93;;
56363;SDS011;42261;52.094;4.326;2023-02-11T02:43:35;13.68;;;5.50;;
56363;SDS011;42261;52.094;4.326;2023-02-11T02:46:21;15.27;;;5.80;;
56363;SDS011;42261;52.094;4.326;2023-02-11T02:49:10;17.73;;;6.15;;
56363;SDS011;42261;52.094;4.326;2023-02-11T02:55:05;15.20;;;5.07;;
56363;SDS011;42261;52.094;4.326;2023-02-11T02:57:59;24.88;;;7.07;;
56363;SDS011;42261;52.094;4.326;2023-02-11T03:09:28;20.17;;;7.47;;
56363;SDS011;42261;52.094;4.326;2023-02-11T03:12:14;18.75;;;5.80;;
56363;SDS011;42261;52.094;4.326;2023-02-11T03:14:59;21.70;;;9.15;;
56363;SDS011;42261;52.094;4.326;2023-02-11T03:17:47;18.42;;;6.03;;
56363;SDS011;42261;52.094;4.326;2023-02-11T03:20:32;23.60;;;7.20;;
56363;SDS011;42261;52.094;4.326;2023-02-11T03:23:27;16.65;;;6.32;;
56363;SDS011;42261;52.094;4.326;2023-02-11T03:26:24;27.17;;;6.82;;
56363;SDS011;42261;52.094;4.326;2023-02-11T03:32:20;19.00;;;7.32;;
56363;SDS011;42261;52.094;4.326;2023-02-11T03:35:06;26.70;;;8.35;;
56363;SDS011;42261;52.094;4.326;2023-02-11T03:37:57;40.75;;;7.65;;
56363;SDS011;42261;52.094;4.326;2023-02-11T03:40:42;25.00;;;8.00;;
56363;SDS011;42261;52.094;4.326;2023-02-11T03:43:36;25.17;;;7.20;;
56363;SDS011;42261;52.094;4.326;2023-02-11T03:46:31;24.80;;;7.97;;
56363;SDS011;42261;52.094;4.326;2023-02-11T03:49:17;24.10;;;8.45;;
56363;SDS011;42261;52.094;4.326;2023-02-11T03:52:03;26.02;;;9.07;;
56363;SDS011;42261;52.094;4.326;2023-02-11T03:54:50;37.47;;;9.15;;
56363;SDS011;42261;52.094;4.326;2023-02-11T03:57:36;26.98;;;9.38;;
56363;SDS011;42261;52.094;4.326;2023-02-11T04:00:21;24.42;;;9.77;;
56363;SDS011;42261;52.094;4.326;2023-02-11T04:03:11;26.88;;;9.77;;
56363;SDS011;42261;52.094;4.326;2023-02-11T04:05:56;28.75;;;9.65;;
56363;SDS011;42261;52.094;4.326;2023-02-11T04:08:40;24.42;;;10.07;;
56363;SDS011;42261;52.094;4.326;2023-02-11T04:11:24;27.88;;;9.88;;
56363;SDS011;42261;52.094;4.326;2023-02-11T04:14:08;25.65;;;10.13;;
56363;SDS011;42261;52.094;4.326;2023-02-11T04:16:52;21.00;;;9.93;;
56363;SDS011;42261;52.094;4.326;2023-02-11T04:19:37;31.20;;;10.98;;
56363;SDS011;42261;52.094;4.326;2023-02-11T04:22:21;33.47;;;10.57;;
56363;SDS011;42261;52.094;4.326;2023-02-11T04:25:06;25.98;;;11.73;;
56363;SDS011;42261;52.094;4.326;2023-02-11T04:27:50;27.00;;;11.50;;
56363;SDS011;42261;52.094;4.326;2023-02-11T04:30:34;33.45;;;11.13;;
56363;SDS011;42261;52.094;4.326;2023-02-11T04:33:18;28.83;;;11.23;;
56363;SDS011;42261;52.094;4.326;2023-02-11T04:36:02;28.30;;;12.15;;
56363;SDS011;42261;52.094;4.326;2023-02-11T04:38:46;29.00;;;11.90;;
56363;SDS011;42261;52.094;4.326;2023-02-11T04:41:30;27.83;;;10.57;;
56363;SDS011;42261;52.094;4.326;2023-02-11T04:44:14;25.98;;;11.18;;
56363;SDS011;42261;52.094;4.326;2023-02-11T04:46:58;30.17;;;12.20;;
56363;SDS011;42261;52.094;4.326;2023-02-11T04:49:42;28.58;;;10.82;;
56363;SDS011;42261;52.094;4.326;2023-02-11T04:52:27;32.90;;;12.00;;
56363;SDS011;42261;52.094;4.326;2023-02-11T04:55:12;29.63;;;11.30;;
56363;SDS011;42261;52.094;4.326;2023-02-11T04:57:56;29.33;;;11.02;;
56363;SDS011;42261;52.094;4.326;2023-02-11T05:00:40;30.05;;;12.23;;
56363;SDS011;42261;52.094;4.326;2023-02-11T05:03:25;30.48;;;11.77;;
56363;SDS011;42261;52.094;4.326;2023-02-11T05:06:09;29.80;;;12.50;;
56363;SDS011;42261;52.094;4.326;2023-02-11T05:08:54;38.30;;;12.80;;
56363;SDS011;42261;52.094;4.326;2023-02-11T05:11:38;28.23;;;11.90;;
56363;SDS011;42261;52.094;4.326;2023-02-11T05:14:22;35.78;;;12.65;;
56363;SDS011;42261;52.094;4.326;2023-02-11T05:17:06;32.03;;;13.13;;
56363;SDS011;42261;52.094;4.326;2023-02-11T05:19:51;35.95;;;13.63;;
56363;SDS011;42261;52.094;4.326;2023-02-11T05:22:34;39.72;;;16.52;;
56363;SDS011;42261;52.094;4.326;2023-02-11T05:25:19;40.72;;;14.85;;
56363;SDS011;42261;52.094;4.326;2023-02-11T05:28:03;34.20;;;13.75;;
56363;SDS011;42261;52.094;4.326;2023-02-11T05:30:47;42.97;;;14.40;;
56363;SDS011;42261;52.094;4.326;2023-02-11T05:33:32;33.72;;;13.02;;
56363;SDS011;42261;52.094;4.326;2023-02-11T05:36:16;36.13;;;13.18;;
56363;SDS011;42261;52.094;4.326;2023-02-11T05:39:00;36.95;;;15.18;;
56363;SDS011;42261;52.094;4.326;2023-02-11T05:41:44;36.67;;;14.18;;
56363;SDS011;42261;52.094;4.326;2023-02-11T05:44:28;35.67;;;13.65;;
56363;SDS011;42261;52.094;4.326;2023-02-11T05:47:13;35.75;;;15.00;;
56363;SDS011;42261;52.094;4.326;2023-02-11T05:49:57;31.65;;;14.60;;
56363;SDS011;42261;52.094;4.326;2023-02-11T05:52:41;41.50;;;15.77;;
56363;SDS011;42261;52.094;4.326;2023-02-11T05:55:25;33.22;;;13.13;;
56363;SDS011;42261;52.094;4.326;2023-02-11T05:58:09;41.72;;;16.65;;
56363;SDS011;42261;52.094;4.326;2023-02-11T06:00:53;44.67;;;14.70;;
56363;SDS011;42261;52.094;4.326;2023-02-11T06:03:37;43.50;;;15.27;;
56363;SDS011;42261;52.094;4.326;2023-02-11T06:06:21;36.40;;;15.10;;
56363;SDS011;42261;52.094;4.326;2023-02-11T06:09:05;39.25;;;15.63;;
56363;SDS011;42261;52.094;4.326;2023-02-11T06:11:49;32.80;;;13.00;;
56363;SDS011;42261;52.094;4.326;2023-02-11T06:14:33;34.05;;;14.25;;
56363;SDS011;42261;52.094;4.326;2023-02-11T06:17:17;41.75;;;15.10;;
56363;SDS011;42261;52.094;4.326;2023-02-11T06:20:01;31.90;;;14.60;;
56363;SDS011;42261;52.094;4.326;2023-02-11T06:22:45;34.15;;;14.77;;
56363;SDS011;42261;52.094;4.326;2023-02-11T06:25:29;36.70;;;14.85;;
56363;SDS011;42261;52.094;4.326;2023-02-11T06:28:13;29.02;;;14.10;;
56363;SDS011;42261;52.094;4.326;2023-02-11T06:30:58;36.40;;;13.93;;
56363;SDS011;42261;52.094;4.326;2023-02-11T06:33:46;37.50;;;15.35;;
56363;SDS011;42261;52.094;4.326;2023-02-11T06:36:32;38.70;;;14.95;;
56363;SDS011;42261;52.094;4.326;2023-02-11T06:39:17;37.95;;;14.27;;
56363;SDS011;42261;52.094;4.326;2023-02-11T06:42:01;36.13;;;14.27;;
56363;SDS011;42261;52.094;4.326;2023-02-11T06:44:48;38.47;;;15.65;;
56363;SDS011;42261;52.094;4.326;2023-02-11T06:47:32;43.60;;;14.88;;
56363;SDS011;42261;52.094;4.326;2023-02-11T06:50:17;32.80;;;15.02;;
56363;SDS011;42261;52.094;4.326;2023-02-11T06:53:01;32.78;;;14.02;;
56363;SDS011;42261;52.094;4.326;2023-02-11T06:55:45;35.45;;;14.82;;
56363;SDS011;42261;52.094;4.326;2023-02-11T06:58:31;36.13;;;15.00;;
56363;SDS011;42261;52.094;4.326;2023-02-11T07:01:15;34.97;;;12.60;;
56363;SDS011;42261;52.094;4.326;2023-02-11T07:03:59;31.17;;;13.15;;
56363;SDS011;42261;52.094;4.326;2023-02-11T07:06:44;36.35;;;14.02;;
56363;SDS011;42261;52.094;4.326;2023-02-11T07:09:30;32.67;;;12.80;;
56363;SDS011;42261;52.094;4.326;2023-02-11T07:12:14;37.53;;;14.02;;
56363;SDS011;42261;52.094;4.326;2023-02-11T07:14:59;30.83;;;12.88;;
56363;SDS011;42261;52.094;4.326;2023-02-11T07:17:43;31.20;;;13.68;;
56363;SDS011;42261;52.094;4.326;2023-02-11T07:20:28;30.83;;;13.50;;
56363;SDS011;42261;52.094;4.326;2023-02-11T07:23:12;30.25;;;13.60;;
56363;SDS011;42261;52.094;4.326;2023-02-11T07:25:56;30.08;;;14.77;;
56363;SDS011;42261;52.094;4.326;2023-02-11T07:28:41;35.38;;;13.77;;
56363;SDS011;42261;52.094;4.326;2023-02-11T07:31:26;33.45;;;13.00;;
56363;SDS011;42261;52.094;4.326;2023-02-11T07:34:11;32.83;;;13.52;;
56363;SDS011;42261;52.094;4.326;2023-02-11T07:36:55;27.73;;;13.68;;
56363;SDS011;42261;52.094;4.326;2023-02-11T07:39:39;36.47;;;15.52;;
56363;SDS011;42261;52.094;4.326;2023-02-11T07:42:23;27.83;;;13.13;;
56363;SDS011;42261;52.094;4.326;2023-02-11T07:45:07;36.22;;;14.18;;
56363;SDS011;42261;52.094;4.326;2023-02-11T07:47:51;34.17;;;12.93;;
56363;SDS011;42261;52.094;4.326;2023-02-11T07:50:37;32.60;;;12.10;;
56363;SDS011;42261;52.094;4.326;2023-02-11T07:53:21;36.05;;;13.65;;
56363;SDS011;42261;52.094;4.326;2023-02-11T07:56:05;28.02;;;12.25;;
56363;SDS011;42261;52.094;4.326;2023-02-11T07:58:49;37.72;;;14.10;;
56363;SDS011;42261;52.094;4.326;2023-02-11T08:01:33;30.45;;;12.02;;
56363;SDS011;42261;52.094;4.326;2023-02-11T08:04:17;27.45;;;10.68;;
56363;SDS011;42261;52.094;4.326;2023-02-11T08:07:01;30.38;;;12.10;;
56363;SDS011;42261;52.094;4.326;2023-02-11T08:09:45;24.73;;;10.57;;
56363;SDS011;42261;52.094;4.326;2023-02-11T08:12:29;27.05;;;11.43;;
56363;SDS011;42261;52.094;4.326;2023-02-11T08:15:13;26.90;;;11.52;;
56363;SDS011;42261;52.094;4.326;2023-02-11T08:17:57;30.65;;;11.18;;
56363;SDS011;42261;52.094;4.326;2023-02-11T08:20:41;27.80;;;10.70;;
56363;SDS011;42261;52.094;4.326;2023-02-11T08:23:27;29.02;;;11.80;;
56363;SDS011;42261;52.094;4.326;2023-02-11T08:26:14;24.98;;;10.48;;
56363;SDS011;42261;52.094;4.326;2023-02-11T08:28:59;23.15;;;10.50;;
56363;SDS011;42261;52.094;4.326;2023-02-11T08:31:45;26.65;;;10.57;;
56363;SDS011;42261;52.094;4.326;2023-02-11T08:34:29;30.58;;;12.55;;
56363;SDS011;42261;52.094;4.326;2023-02-11T08:37:13;21.63;;;9.25;;
56363;SDS011;42261;52.094;4.326;2023-02-11T08:39:57;30.35;;;11.25;;
56363;SDS011;42261;52.094;4.326;2023-02-11T08:42:42;25.50;;;10.48;;
56363;SDS011;42261;52.094;4.326;2023-02-11T08:45:26;19.65;;;10.65;;
56363;SDS011;42261;52.094;4.326;2023-02-11T08:48:10;18.75;;;9.43;;
56363;SDS011;42261;52.094;4.326;2023-02-11T08:50:54;21.48;;;9.43;;
56363;SDS011;42261;52.094;4.326;2023-02-11T08:53:39;21.15;;;8.88;;
56363;SDS011;42261;52.094;4.326;2023-02-11T08:56:23;19.98;;;8.82;;
56363;SDS011;42261;52.094;4.326;2023-02-11T08:59:09;19.58;;;9.65;;
56363;SDS011;42261;52.094;4.326;2023-02-11T09:01:54;18.48;;;8.55;;
56363;SDS011;42261;52.094;4.326;2023-02-11T09:04:39;23.23;;;8.80;;
56363;SDS011;42261;52.094;4.326;2023-02-11T09:07:23;19.88;;;8.80;;
56363;SDS011;42261;52.094;4.326;2023-02-11T09:10:07;22.80;;;8.55;;
56363;SDS011;42261;52.094;4.326;2023-02-11T09:12:54;16.08;;;7.05;;
56363;SDS011;42261;52.094;4.326;2023-02-11T09:15:38;23.35;;;8.13;;
56363;SDS011;42261;52.094;4.326;2023-02-11T09:18:22;16.63;;;7.82;;
56363;SDS011;42261;52.094;4.326;2023-02-11T09:21:07;18.50;;;8.80;;
56363;SDS011;42261;52.094;4.326;2023-02-11T09:23:52;20.17;;;7.88;;
56363;SDS011;42261;52.094;4.326;2023-02-11T09:26:37;19.05;;;7.38;;
56363;SDS011;42261;52.094;4.326;2023-02-11T09:29:21;16.25;;;7.00;;
56363;SDS011;42261;52.094;4.326;2023-02-11T09:32:06;15.77;;;7.10;;
56363;SDS011;42261;52.094;4.326;2023-02-11T09:34:50;18.30;;;8.07;;
56363;SDS011;42261;52.094;4.326;2023-02-11T09:37:34;15.02;;;7.60;;
56363;SDS011;42261;52.094;4.326;2023-02-11T09:40:19;17.65;;;7.00;;
56363;SDS011;42261;52.094;4.326;2023-02-11T09:45:57;18.33;;;7.35;;
56363;SDS011;42261;52.094;4.326;2023-02-11T09:48:43;16.63;;;7.35;;
56363;SDS011;42261;52.094;4.326;2023-02-11T09:51:38;15.75;;;6.80;;
56363;SDS011;42261;52.094;4.326;2023-02-11T09:57:12;13.50;;;7.10;;
56363;SDS011;42261;52.094;4.326;2023-02-11T09:59:56;21.98;;;8.38;;
56363;SDS011;42261;52.094;4.326;2023-02-11T10:02:45;15.27;;;7.80;;
56363;SDS011;42261;52.094;4.326;2023-02-11T10:11:12;19.90;;;7.45;;
56363;SDS011;42261;52.094;4.326;2023-02-11T10:25:27;15.75;;;7.50;;
56363;SDS011;42261;52.094;4.326;2023-02-11T10:28:19;18.05;;;7.15;;
56363;SDS011;42261;52.094;4.326;2023-02-11T10:31:23;15.48;;;7.88;;
56363;SDS011;42261;52.094;4.326;2023-02-11T10:34:09;14.90;;;7.43;;
56363;SDS011;42261;52.094;4.326;2023-02-11T10:36:54;18.95;;;8.85;;
56363;SDS011;42261;52.094;4.326;2023-02-11T10:39:39;15.75;;;7.78;;
56363;SDS011;42261;52.094;4.326;2023-02-11T10:42:23;17.38;;;7.60;;
56363;SDS011;42261;52.094;4.326;2023-02-11T10:45:09;17.77;;;8.23;;
56363;SDS011;42261;52.094;4.326;2023-02-11T10:48:03;17.73;;;7.43;;
56363;SDS011;42261;52.094;4.326;2023-02-11T10:50:49;14.77;;;7.53;;
56363;SDS011;42261;52.094;4.326;2023-02-11T10:53:34;17.17;;;8.70;;
56363;SDS011;42261;52.094;4.326;2023-02-11T10:56:28;23.50;;;9.95;;
56363;SDS011;42261;52.094;4.326;2023-02-11T11:02:04;15.10;;;8.45;;
56363;SDS011;42261;52.094;4.326;2023-02-11T11:04:54;19.27;;;9.02;;
56363;SDS011;42261;52.094;4.326;2023-02-11T11:07:39;19.25;;;9.07;;
56363;SDS011;42261;52.094;4.326;2023-02-11T11:10:35;18.98;;;8.45;;
56363;SDS011;42261;52.094;4.326;2023-02-11T11:13:27;16.00;;;8.85;;
56363;SDS011;42261;52.094;4.326;2023-02-11T11:24:43;21.17;;;8.95;;
56363;SDS011;42261;52.094;4.326;2023-02-11T11:27:27;19.05;;;7.25;;
56363;SDS011;42261;52.094;4.326;2023-02-11T11:30:16;19.58;;;8.52;;
56363;SDS011;42261;52.094;4.326;2023-02-11T11:33:00;19.83;;;8.65;;
56363;SDS011;42261;52.094;4.326;2023-02-11T11:35:53;15.35;;;8.05;;
56363;SDS011;42261;52.094;4.326;2023-02-11T11:38:48;20.55;;;8.15;;
56363;SDS011;42261;52.094;4.326;2023-02-11T11:41:33;15.45;;;7.35;;
56363;SDS011;42261;52.094;4.326;2023-02-11T11:44:28;15.95;;;7.18;;
56363;SDS011;42261;52.094;4.326;2023-02-11T11:53:03;13.38;;;7.22;;
56363;SDS011;42261;52.094;4.326;2023-02-11T11:58:51;65.85;;;11.65;;
56363;SDS011;42261;52.094;4.326;2023-02-11T12:01:49;15.25;;;6.57;;
56363;SDS011;42261;52.094;4.326;2023-02-11T12:04:41;16.38;;;6.82;;
56363;SDS011;42261;52.094;4.326;2023-02-11T12:07:45;11.57;;;6.40;;
56363;SDS011;42261;52.094;4.326;2023-02-11T12:13:34;15.68;;;7.50;;
56363;SDS011;42261;52.094;4.326;2023-02-11T12:16:27;20.25;;;8.50;;
56363;SDS011;42261;52.094;4.326;2023-02-11T12:22:06;17.30;;;8.10;;
56363;SDS011;42261;52.094;4.326;2023-02-11T12:25:08;16.52;;;7.70;;
56363;SDS011;42261;52.094;4.326;2023-02-11T12:36:59;11.95;;;7.25;;
56363;SDS011;42261;52.094;4.326;2023-02-11T12:52:14;10.48;;;6.00;;
56363;SDS011;42261;52.094;4.326;2023-02-11T12:55:06;16.75;;;6.68;;
56363;SDS011;42261;52.094;4.326;2023-02-11T12:57:52;14.63;;;5.72;;
56363;SDS011;42261;52.094;4.326;2023-02-11T13:03:28;16.60;;;5.97;;
56363;SDS011;42261;52.094;4.326;2023-02-11T13:06:16;13.38;;;5.80;;
56363;SDS011;42261;52.094;4.326;2023-02-11T13:09:03;13.70;;;6.82;;
56363;SDS011;42261;52.094;4.326;2023-02-11T13:11:56;7.03;;;4.55;;
56363;SDS011;42261;52.094;4.326;2023-02-11T13:14:40;11.77;;;5.00;;
56363;SDS011;42261;52.094;4.326;2023-02-11T13:17:27;12.38;;;4.85;;
56363;SDS011;42261;52.094;4.326;2023-02-11T13:20:30;17.00;;;5.23;;
56363;SDS011;42261;52.094;4.326;2023-02-11T13:23:24;10.55;;;5.25;;
56363;SDS011;42261;52.094;4.326;2023-02-11T13:28:59;13.57;;;5.38;;
56363;SDS011;42261;52.094;4.326;2023-02-11T13:35:15;9.50;;;4.03;;
56363;SDS011;42261;52.094;4.326;2023-02-11T13:38:29;9.30;;;4.97;;
56363;SDS011;42261;52.094;4.326;2023-02-11T13:43:57;11.40;;;4.43;;
56363;SDS011;42261;52.094;4.326;2023-02-11T13:49:37;8.63;;;4.07;;
56363;SDS011;42261;52.094;4.326;2023-02-11T13:52:27;8.20;;;3.70;;
56363;SDS011;42261;52.094;4.326;2023-02-11T14:00:50;7.68;;;4.13;;
56363;SDS011;42261;52.094;4.326;2023-02-11T14:03:37;7.55;;;3.55;;
56363;SDS011;42261;52.094;4.326;2023-02-11T14:06:40;7.95;;;3.08;;
56363;SDS011;42261;52.094;4.326;2023-02-11T14:10:03;36.10;;;13.13;;
56363;SDS011;42261;52.094;4.326;2023-02-11T14:13:03;9.02;;;4.10;;
56363;SDS011;42261;52.094;4.326;2023-02-11T14:15:48;8.68;;;3.67;;
56363;SDS011;42261;52.094;4.326;2023-02-11T14:21:37;8.40;;;4.20;;
56363;SDS011;42261;52.094;4.326;2023-02-11T14:27:10;10.82;;;3.95;;
56363;SDS011;42261;52.094;4.326;2023-02-11T14:33:11;9.45;;;3.67;;
56363;SDS011;42261;52.094;4.326;2023-02-11T14:38:55;7.60;;;3.58;;
56363;SDS011;42261;52.094;4.326;2023-02-11T14:41:43;6.55;;;3.05;;
56363;SDS011;42261;52.094;4.326;2023-02-11T14:44:29;6.50;;;3.05;;
56363;SDS011;42261;52.094;4.326;2023-02-11T14:47:16;11.35;;;4.10;;
56363;SDS011;42261;52.094;4.326;2023-02-11T14:50:01;9.38;;;3.97;;
56363;SDS011;42261;52.094;4.326;2023-02-11T14:52:45;10.48;;;3.90;;
56363;SDS011;42261;52.094;4.326;2023-02-11T14:55:34;6.40;;;2.80;;
56363;SDS011;42261;52.094;4.326;2023-02-11T14:58:30;5.50;;;3.22;;
56363;SDS011;42261;52.094;4.326;2023-02-11T15:01:25;8.35;;;3.45;;
56363;SDS011;42261;52.094;4.326;2023-02-11T15:04:22;7.10;;;3.28;;
56363;SDS011;42261;52.094;4.326;2023-02-11T15:07:07;7.85;;;3.15;;
56363;SDS011;42261;52.094;4.326;2023-02-11T15:09:54;8.93;;;3.53;;
56363;SDS011;42261;52.094;4.326;2023-02-11T15:12:39;7.20;;;2.88;;
56363;SDS011;42261;52.094;4.326;2023-02-11T15:15:25;10.80;;;3.20;;
56363;SDS011;42261;52.094;4.326;2023-02-11T15:18:21;7.00;;;3.20;;
56363;SDS011;42261;52.094;4.326;2023-02-11T15:21:08;7.15;;;3.03;;
56363;SDS011;42261;52.094;4.326;2023-02-11T15:24:00;6.28;;;2.95;;
56363;SDS011;42261;52.094;4.326;2023-02-11T15:26:53;8.02;;;4.00;;
56363;SDS011;42261;52.094;4.326;2023-02-11T15:29:47;11.77;;;3.92;;
56363;SDS011;42261;52.094;4.326;2023-02-11T15:32:32;5.80;;;3.10;;
56363;SDS011;42261;52.094;4.326;2023-02-11T15:35:16;8.30;;;3.97;;
56363;SDS011;42261;52.094;4.326;2023-02-11T15:38:00;7.40;;;3.53;;
56363;SDS011;42261;52.094;4.326;2023-02-11T15:40:55;7.28;;;3.67;;
56363;SDS011;42261;52.094;4.326;2023-02-11T15:46:25;8.57;;;3.65;;
56363;SDS011;42261;52.094;4.326;2023-02-11T15:49:15;9.18;;;4.20;;
56363;SDS011;42261;52.094;4.326;2023-02-11T15:52:02;5.30;;;3.00;;
56363;SDS011;42261;52.094;4.326;2023-02-11T15:54:46;11.52;;;3.97;;
56363;SDS011;42261;52.094;4.326;2023-02-11T15:57:31;9.60;;;4.20;;
56363;SDS011;42261;52.094;4.326;2023-02-11T16:00:19;9.10;;;4.05;;
56363;SDS011;42261;52.094;4.326;2023-02-11T16:03:04;7.30;;;3.28;;
56363;SDS011;42261;52.094;4.326;2023-02-11T16:05:48;6.88;;;3.45;;
56363;SDS011;42261;52.094;4.326;2023-02-11T16:08:33;7.88;;;3.30;;
56363;SDS011;42261;52.094;4.326;2023-02-11T16:12:16;13.75;;;4.28;;
56363;SDS011;42261;52.094;4.326;2023-02-11T16:17:11;8.45;;;3.72;;
56363;SDS011;42261;52.094;4.326;2023-02-11T16:19:58;7.95;;;4.15;;
56363;SDS011;42261;52.094;4.326;2023-02-11T16:22:43;10.18;;;4.05;;
56363;SDS011;42261;52.094;4.326;2023-02-11T16:25:28;8.65;;;3.92;;
56363;SDS011;42261;52.094;4.326;2023-02-11T16:28:13;7.18;;;4.18;;
56363;SDS011;42261;52.094;4.326;2023-02-11T16:30:59;9.30;;;4.18;;
56363;SDS011;42261;52.094;4.326;2023-02-11T16:33:45;11.30;;;3.90;;
56363;SDS011;42261;52.094;4.326;2023-02-11T16:36:29;8.68;;;3.53;;
56363;SDS011;42261;52.094;4.326;2023-02-11T16:39:13;8.40;;;4.40;;
56363;SDS011;42261;52.094;4.326;2023-02-11T16:41:58;10.30;;;4.55;;
56363;SDS011;42261;52.094;4.326;2023-02-11T16:44:41;6.85;;;3.47;;
56363;SDS011;42261;52.094;4.326;2023-02-11T16:47:26;7.78;;;3.40;;
56363;SDS011;42261;52.094;4.326;2023-02-11T16:50:17;10.13;;;4.15;;
56363;SDS011;42261;52.094;4.326;2023-02-11T16:53:03;10.20;;;4.55;;
56363;SDS011;42261;52.094;4.326;2023-02-11T16:55:49;10.02;;;4.30;;
56363;SDS011;42261;52.094;4.326;2023-02-11T16:58:33;8.00;;;4.25;;
56363;SDS011;42261;52.094;4.326;2023-02-11T17:01:17;10.30;;;4.60;;
56363;SDS011;42261;52.094;4.326;2023-02-11T17:04:01;19.23;;;9.70;;
56363;SDS011;42261;52.094;4.326;2023-02-11T17:06:46;10.50;;;4.40;;
56363;SDS011;42261;52.094;4.326;2023-02-11T17:09:30;8.88;;;4.70;;
56363;SDS011;42261;52.094;4.326;2023-02-11T17:12:15;11.20;;;5.45;;
56363;SDS011;42261;52.094;4.326;2023-02-11T17:15:00;9.48;;;4.32;;
56363;SDS011;42261;52.094;4.326;2023-02-11T17:17:44;8.43;;;3.83;;
56363;SDS011;42261;52.094;4.326;2023-02-11T17:20:28;9.27;;;4.30;;
56363;SDS011;42261;52.094;4.326;2023-02-11T17:23:12;8.18;;;5.22;;
56363;SDS011;42261;52.094;4.326;2023-02-11T17:25:56;11.52;;;5.95;;
56363;SDS011;42261;52.094;4.326;2023-02-11T17:28:40;7.80;;;4.65;;
56363;SDS011;42261;52.094;4.326;2023-02-11T17:31:24;9.57;;;4.97;;
56363;SDS011;42261;52.094;4.326;2023-02-11T17:34:08;7.50;;;4.22;;
56363;SDS011;42261;52.094;4.326;2023-02-11T17:36:53;9.80;;;4.22;;
56363;SDS011;42261;52.094;4.326;2023-02-11T17:39:37;11.98;;;5.30;;
56363;SDS011;42261;52.094;4.326;2023-02-11T17:42:22;10.93;;;4.22;;
56363;SDS011;42261;52.094;4.326;2023-02-11T17:45:06;11.43;;;5.00;;
56363;SDS011;42261;52.094;4.326;2023-02-11T17:47:51;13.02;;;4.90;;
56363;SDS011;42261;52.094;4.326;2023-02-11T17:50:35;11.38;;;4.45;;
56363;SDS011;42261;52.094;4.326;2023-02-11T17:53:19;8.25;;;3.95;;
56363;SDS011;42261;52.094;4.326;2023-02-11T17:56:04;11.07;;;4.65;;
56363;SDS011;42261;52.094;4.326;2023-02-11T17:58:50;9.23;;;4.32;;
56363;SDS011;42261;52.094;4.326;2023-02-11T18:01:35;9.82;;;4.45;;
56363;SDS011;42261;52.094;4.326;2023-02-11T18:04:20;9.73;;;4.75;;
56363;SDS011;42261;52.094;4.326;2023-02-11T18:07:05;11.77;;;4.85;;
56363;SDS011;42261;52.094;4.326;2023-02-11T18:09:49;12.25;;;4.65;;
56363;SDS011;42261;52.094;4.326;2023-02-11T18:12:33;14.07;;;8.93;;
56363;SDS011;42261;52.094;4.326;2023-02-11T18:15:19;7.70;;;4.15;;
56363;SDS011;42261;52.094;4.326;2023-02-11T18:18:04;7.82;;;4.55;;
56363;SDS011;42261;52.094;4.326;2023-02-11T18:20:55;8.93;;;4.50;;
56363;SDS011;42261;52.094;4.326;2023-02-11T18:23:40;13.05;;;5.13;;
56363;SDS011;42261;52.094;4.326;2023-02-11T18:26:25;7.55;;;3.95;;
56363;SDS011;42261;52.094;4.326;2023-02-11T18:29:11;7.95;;;4.45;;
56363;SDS011;42261;52.094;4.326;2023-02-11T18:31:55;11.85;;;4.97;;
56363;SDS011;42261;52.094;4.326;2023-02-11T18:34:40;8.82;;;4.28;;
56363;SDS011;42261;52.094;4.326;2023-02-11T18:37:26;9.13;;;4.35;;
56363;SDS011;42261;52.094;4.326;2023-02-11T18:40:11;10.45;;;4.72;;
56363;SDS011;42261;52.094;4.326;2023-02-11T18:42:55;10.55;;;5.75;;
56363;SDS011;42261;52.094;4.326;2023-02-11T18:45:42;8.82;;;4.60;;
56363;SDS011;42261;52.094;4.326;2023-02-11T18:48:27;9.60;;;5.40;;
56363;SDS011;42261;52.094;4.326;2023-02-11T18:51:13;9.93;;;4.68;;
56363;SDS011;42261;52.094;4.326;2023-02-11T18:53:59;10.55;;;5.90;;